Time;durP1;ratioP1;P1;durP2;ratioP2;P2;SDS_P1;SDS_P2;PMS_P1;PMS_P2;Temp;Humidity;BMP_temperature;BMP_pressure;BME280_temperature;BME280_humidity;BME280_pressure;Samples;Min_cycle;Max_cycle;Signal;HPM_P1;HPM_P2
2023/08/02 00:00:43;;;;;;;12.95;4.47;;;;;;;17.70;100.00;99990.97;5122465;28;20122;-61
2023/08/02 00:03:10;;;;;;;12.95;4.30;;;;;;;17.67;100.00;99993.25;5129956;28;20097;-62
2023/08/02 00:05:38;;;;;;;12.63;4.70;;;;;;;17.61;100.00;99985.53;5127962;28;20118;-63
2023/08/02 00:08:06;;;;;;;12.02;4.28;;;;;;;17.56;100.00;99983.00;5109237;28;20116;-64
2023/08/02 00:10:37;;;;;;;10.73;4.15;;;;;;;17.54;100.00;99968.75;5104572;28;20054;-59
2023/08/02 00:13:04;;;;;;;14.60;4.75;;;;;;;17.53;100.00;99967.09;5110389;28;20047;-64
2023/08/02 00:15:32;;;;;;;14.02;4.57;;;;;;;17.53;100.00;99969.88;5132074;28;20122;-64
2023/08/02 00:18:00;;;;;;;13.27;4.68;;;;;;;17.52;100.00;99976.53;5093840;28;20103;-61
2023/08/02 00:20:28;;;;;;;11.13;3.85;;;;;;;17.51;100.00;99969.38;5120731;28;20047;-62
2023/08/02 00:22:55;;;;;;;11.70;3.72;;;;;;;17.49;100.00;99971.69;5100711;28;20410;-63
2023/08/02 00:25:24;;;;;;;10.15;3.90;;;;;;;17.48;100.00;99978.34;5118200;28;20065;-60
2023/08/02 00:27:51;;;;;;;10.38;3.85;;;;;;;17.48;100.00;99983.84;5117083;28;20042;-63
2023/08/02 00:30:19;;;;;;;11.63;3.63;;;;;;;17.46;100.00;99981.41;5117561;28;20050;-64
2023/08/02 00:32:48;;;;;;;10.45;3.30;;;;;;;17.43;100.00;99985.66;5117556;28;20078;-63
2023/08/02 00:35:17;;;;;;;9.30;3.60;;;;;;;17.43;100.00;99982.09;5115861;28;20059;-63
2023/08/02 00:37:45;;;;;;;12.95;3.70;;;;;;;17.42;100.00;99978.53;5117154;28;20052;-63
2023/08/02 00:40:13;;;;;;;12.65;3.78;;;;;;;17.39;100.00;99978.38;5118889;28;20052;-63
2023/08/02 00:42:41;;;;;;;10.07;3.53;;;;;;;17.37;100.00;99973.22;5116623;28;20088;-62
2023/08/02 00:45:09;;;;;;;13.23;3.63;;;;;;;17.36;100.00;99977.09;5116583;28;20053;-62
2023/08/02 00:47:38;;;;;;;15.45;4.57;;;;;;;17.34;100.00;99965.66;5112928;28;20066;-62
2023/08/02 00:50:06;;;;;;;12.25;4.10;;;;;;;17.24;100.00;99955.00;5095418;28;20500;-63
2023/08/02 00:52:34;;;;;;;12.68;4.22;;;;;;;17.15;100.00;99948.75;5087500;28;20488;-64
2023/08/02 00:55:02;;;;;;;9.82;3.50;;;;;;;17.07;100.00;99950.41;5117212;28;20088;-61
2023/08/02 00:57:30;;;;;;;8.73;3.70;;;;;;;17.06;100.00;99942.50;5097234;28;20100;-61
2023/08/02 00:59:58;;;;;;;11.80;3.75;;;;;;;17.05;100.00;99941.69;5098846;28;20036;-64
2023/08/02 01:02:26;;;;;;;8.65;3.40;;;;;;;17.04;100.00;99938.13;5115485;28;20048;-63
2023/08/02 01:04:54;;;;;;;11.07;3.67;;;;;;;17.05;100.00;99941.69;5116876;28;20044;-61
2023/08/02 01:07:28;;;;;;;7.85;3.30;;;;;;;17.07;100.00;99933.09;5114497;28;20040;-62
2023/08/02 01:10:30;;;;;;;8.95;3.53;;;;;;;17.08;100.00;99926.44;5097687;28;20043;-63
2023/08/02 01:13:01;;;;;;;9.65;3.67;;;;;;;17.04;100.00;99929.06;5114757;28;20051;-63
2023/08/02 01:15:30;;;;;;;8.18;3.10;;;;;;;17.04;100.00;99932.63;5098348;28;20051;-61
2023/08/02 01:17:59;;;;;;;9.10;3.55;;;;;;;17.07;100.00;99938.59;5113467;28;20036;-62
2023/08/02 01:20:27;;;;;;;6.60;2.85;;;;;;;17.08;100.00;99935.53;5098349;28;20104;-63
2023/08/02 01:22:55;;;;;;;9.65;3.25;;;;;;;17.10;100.00;99932.41;5116389;28;20047;-64
2023/08/02 01:25:27;;;;;;;8.15;3.17;;;;;;;17.11;100.00;99929.34;5116428;27;20043;-63
2023/08/02 01:28:00;;;;;;;9.18;3.83;;;;;;;17.09;100.00;99937.13;5114344;28;20050;-64
2023/08/02 01:30:38;;;;;;;9.57;3.55;;;;;;;17.07;100.00;99938.59;5098165;28;20048;-64
2023/08/02 01:33:06;;;;;;;6.88;2.80;;;;;;;17.08;100.00;99927.28;5095397;28;20043;-64
2023/08/02 01:35:34;;;;;;;7.68;3.00;;;;;;;17.09;100.00;99928.06;5095067;28;20056;-63
2023/08/02 01:38:03;;;;;;;7.65;3.00;;;;;;;17.10;100.00;99927.75;5117404;27;20084;-63
2023/08/02 01:40:31;;;;;;;6.22;3.05;;;;;;;17.11;100.00;99926.59;5094693;28;20040;-64
2023/08/02 01:42:59;;;;;;;7.38;3.10;;;;;;;17.12;100.00;99922.69;5094424;28;20047;-63
2023/08/02 01:45:26;;;;;;;8.52;3.25;;;;;;;17.12;100.00;99917.19;5113159;28;20493;-63
2023/08/02 01:47:55;;;;;;;7.85;3.00;;;;;;;17.11;100.00;99918.34;5096854;28;20066;-63
2023/08/02 01:50:23;;;;;;;6.57;3.10;;;;;;;17.09;100.00;99914.31;5096214;28;20116;-62
2023/08/02 01:52:52;;;;;;;6.75;2.95;;;;;;;17.08;100.00;99904.41;5114360;28;20039;-64
2023/08/02 01:55:20;;;;;;;7.22;3.00;;;;;;;17.09;100.00;99897.78;5113880;28;20047;-64
2023/08/02 01:57:48;;;;;;;9.25;3.08;;;;;;;17.10;100.00;99896.63;5097959;28;20051;-63
2023/08/02 02:00:16;;;;;;;8.27;2.83;;;;;;;17.10;100.00;99889.22;5114358;28;20051;-63
2023/08/02 02:02:44;;;;;;;6.93;2.80;;;;;;;17.10;100.00;99880.13;5097006;28;20051;-62
2023/08/02 02:05:13;;;;;;;8.00;3.17;;;;;;;17.11;100.00;99879.81;5080313;28;20052;-63
2023/08/02 02:07:41;;;;;;;8.60;3.08;;;;;;;17.11;100.00;99873.50;5114581;28;20052;-62
2023/08/02 02:10:09;;;;;;;9.10;3.40;;;;;;;17.10;100.00;99866.38;5115561;28;20044;-63
2023/08/02 02:12:37;;;;;;;7.93;2.80;;;;;;;17.07;100.00;99861.53;5115256;28;20047;-63
2023/08/02 02:15:05;;;;;;;7.90;2.90;;;;;;;17.01;100.00;99845.22;5114370;28;20048;-62
2023/08/02 02:17:32;;;;;;;6.32;3.03;;;;;;;16.97;100.00;99847.03;5111859;28;20084;-63
2023/08/02 02:20:01;;;;;;;10.23;3.40;;;;;;;16.95;100.00;99838.31;5115909;28;20050;-63
2023/08/02 02:22:28;;;;;;;8.07;3.33;;;;;;;16.93;100.00;99837.03;5114157;28;20150;-63
2023/08/02 02:24:56;;;;;;;7.50;3.10;;;;;;;16.91;100.00;99847.56;5097141;28;20040;-62
2023/08/02 02:27:24;;;;;;;9.40;3.10;;;;;;;16.92;100.00;99841.72;5095358;28;20043;-62
2023/08/02 02:29:52;;;;;;;7.75;3.00;;;;;;;16.95;100.00;99826.50;5097129;28;20411;-63
2023/08/02 02:32:19;;;;;;;7.15;2.95;;;;;;;16.98;100.00;99818.38;5110543;28;20044;-64
2023/08/02 02:34:47;;;;;;;10.20;3.28;;;;;;;17.00;100.00;99815.28;5093045;28;20055;-64
2023/08/02 02:37:15;;;;;;;7.32;3.28;;;;;;;17.00;100.00;99796.03;5093902;28;20442;-62
2023/08/02 02:39:42;;;;;;;8.50;4.07;;;;;;;16.99;100.00;99806.22;5099496;28;20051;-64
2023/08/02 02:42:10;;;;;;;9.05;3.50;;;;;;;16.99;100.00;99808.19;5113956;28;20051;-63
2023/08/02 02:44:42;;;;;;;8.02;3.50;;;;;;;16.97;100.00;99796.69;5096794;28;20396;-62
2023/08/02 02:47:11;;;;;;;8.85;3.50;;;;;;;16.97;100.00;99792.00;5113968;28;20050;-64
2023/08/02 02:49:39;;;;;;;8.43;3.15;;;;;;;16.94;100.00;99789.91;5096912;28;20048;-62
2023/08/02 02:52:07;;;;;;;11.18;3.92;;;;;;;16.94;100.00;99780.88;5093882;28;20064;-63
2023/08/02 02:54:34;;;;;;;7.97;3.10;;;;;;;16.91;100.00;99789.78;5094012;28;20134;-63
2023/08/02 02:57:02;;;;;;;9.20;3.30;;;;;;;16.89;100.00;99792.88;5087523;28;20052;-63
2023/08/02 02:59:30;;;;;;;8.82;3.22;;;;;;;16.91;100.00;99787.84;5096230;28;20040;-63
2023/08/02 03:01:59;;;;;;;9.00;3.50;;;;;;;16.93;100.00;99791.06;5113960;28;20050;-65
2023/08/02 03:04:27;;;;;;;10.45;3.85;;;;;;;16.92;100.00;99783.94;5096214;28;20121;-62
2023/08/02 03:06:55;;;;;;;9.63;3.30;;;;;;;16.88;100.00;99769.25;5111877;28;20055;-63
2023/08/02 03:09:23;;;;;;;8.27;3.33;;;;;;;16.84;100.00;99762.81;5112025;28;20054;-63
2023/08/02 03:11:50;;;;;;;10.32;3.78;;;;;;;16.79;100.00;99758.31;5092841;28;20496;-63
2023/08/02 03:14:19;;;;;;;11.35;3.40;;;;;;;16.78;100.00;99755.88;5059560;28;20048;-64
2023/08/02 03:16:46;;;;;;;6.38;3.25;;;;;;;16.80;100.00;99742.63;5094762;28;20488;-63
2023/08/02 03:19:14;;;;;;;5.88;2.92;;;;;;;16.84;100.00;99729.81;5113068;28;20044;-63
2023/08/02 03:21:43;;;;;;;8.32;3.10;;;;;;;16.83;100.00;99725.44;5114101;28;20043;-64
2023/08/02 03:24:12;;;;;;;9.07;3.58;;;;;;;16.83;100.00;99722.69;5114241;28;20415;-63
2023/08/02 03:26:39;;;;;;;8.18;3.22;;;;;;;16.85;100.00;99708.59;5095918;28;20055;-65
2023/08/02 03:29:08;;;;;;;8.52;3.00;;;;;;;16.86;100.00;99702.78;5112264;28;20051;-64
2023/08/02 03:31:35;;;;;;;7.95;3.17;;;;;;;16.87;100.00;99698.88;5093877;28;20054;-62
2023/08/02 03:34:03;;;;;;;10.38;3.40;;;;;;;16.86;100.00;99700.03;5075674;28;20420;-62
2023/08/02 03:36:31;;;;;;;10.98;3.60;;;;;;;16.82;100.00;99680.63;5076159;28;20044;-62
2023/08/02 03:38:59;;;;;;;10.48;3.60;;;;;;;16.80;100.00;99687.59;5103591;28;20092;-62
2023/08/02 03:41:27;;;;;;;6.35;3.15;;;;;;;16.80;100.00;99687.59;5113413;28;20114;-63
2023/08/02 03:43:54;;;;;;;7.60;3.25;;;;;;;16.82;100.00;99690.81;5095849;28;20043;-63
2023/08/02 03:46:22;;;;;;;11.02;3.72;;;;;;;16.79;100.00;99684.06;5114087;28;20062;-62
2023/08/02 03:48:50;;;;;;;7.20;3.30;;;;;;;16.75;100.00;99679.53;5099247;28;20113;-63
2023/08/02 03:51:18;;;;;;;12.68;3.38;;;;;;;16.73;100.00;99681.81;5093060;28;20048;-64
2023/08/02 03:53:46;;;;;;;8.50;3.15;;;;;;;16.73;100.00;99676.31;5075743;28;20048;-65
2023/08/02 03:56:13;;;;;;;6.90;3.45;;;;;;;16.75;100.00;99668.53;5093505;28;20047;-62
2023/08/02 03:58:41;;;;;;;6.13;3.03;;;;;;;16.77;100.00;99660.75;5092629;28;20040;-65
2023/08/02 04:01:09;;;;;;;11.13;3.75;;;;;;;16.78;100.00;99654.09;5074213;28;20052;-65
2023/08/02 04:03:37;;;;;;;8.32;3.13;;;;;;;16.80;100.00;99643.59;5072989;28;20041;-64
2023/08/02 04:06:04;;;;;;;8.82;3.75;;;;;;;16.79;100.00;99642.00;5092008;28;20040;-65
2023/08/02 04:08:32;;;;;;;7.75;3.30;;;;;;;16.78;100.00;99645.84;5092083;28;20477;-63
2023/08/02 04:11:04;;;;;;;8.88;3.53;;;;;;;16.76;100.00;99639.84;5073929;28;20044;-63
2023/08/02 04:13:32;;;;;;;5.75;2.95;;;;;;;16.76;100.00;99639.84;5075265;28;20047;-64
2023/08/02 04:16:01;;;;;;;9.63;3.22;;;;;;;16.78;100.00;99637.59;5058827;28;20060;-63
2023/08/02 04:18:28;;;;;;;5.80;2.90;;;;;;;16.82;100.00;99630.28;5093456;28;20039;-64
2023/08/02 04:20:59;;;;;;;8.32;3.30;;;;;;;16.80;100.00;99613.31;5073683;28;20036;-68
2023/08/02 04:23:27;;;;;;;7.28;3.05;;;;;;;16.78;100.00;99604.56;5088344;28;20093;-63
2023/08/02 04:25:55;;;;;;;8.57;3.25;;;;;;;16.79;100.00;99589.72;5094231;28;20040;-64
2023/08/02 04:28:26;;;;;;;7.65;3.40;;;;;;;16.80;100.00;99583.88;5104463;28;20052;-59
2023/08/02 04:30:54;;;;;;;9.07;3.28;;;;;;;16.80;100.00;99583.06;5073997;28;20048;-62
2023/08/02 04:33:21;;;;;;;7.35;3.22;;;;;;;16.78;100.00;99579.81;5101252;28;20096;-62
2023/08/02 04:35:49;;;;;;;7.95;4.00;;;;;;;16.80;100.00;99578.34;5093798;28;20116;-64
2023/08/02 04:38:17;;;;;;;8.48;4.07;;;;;;;16.81;100.00;99579.16;5084394;28;20051;-63
2023/08/02 04:40:45;;;;;;;8.80;3.63;;;;;;;16.82;100.00;99558.78;5088878;28;20052;-66
2023/08/02 04:43:13;;;;;;;9.50;4.20;;;;;;;16.84;100.00;99548.22;5084318;28;20045;-63
2023/08/02 04:45:41;;;;;;;7.75;3.63;;;;;;;16.85;100.00;99540.78;5073002;28;20048;-64
2023/08/02 04:48:09;;;;;;;8.57;3.60;;;;;;;16.85;100.00;99536.06;5086300;28;20063;-64
2023/08/02 04:50:38;;;;;;;8.45;3.50;;;;;;;16.85;100.00;99530.56;5121981;28;20515;-62
2023/08/02 04:53:06;;;;;;;7.95;3.38;;;;;;;16.85;100.00;99525.06;5097359;28;20044;-62
2023/08/02 04:55:44;;;;;;;8.27;3.80;;;;;;;16.83;100.00;99514.41;5118478;28;20055;-62
2023/08/02 04:58:11;;;;;;;7.43;3.72;;;;;;;16.79;100.00;99507.19;5067033;28;20047;-64
2023/08/02 05:00:39;;;;;;;12.93;4.25;;;;;;;16.79;100.00;99501.69;5117029;28;20112;-62
2023/08/02 05:03:07;;;;;;;9.27;3.97;;;;;;;16.80;100.00;99495.84;5081117;28;20044;-64
2023/08/02 05:05:35;;;;;;;6.68;3.55;;;;;;;16.81;100.00;99496.63;5099055;28;20043;-64
2023/08/02 05:08:03;;;;;;;7.15;3.60;;;;;;;16.82;100.00;99484.50;5117035;28;20044;-64
2023/08/02 05:10:31;;;;;;;10.38;3.88;;;;;;;16.83;100.00;99477.84;5116959;28;20043;-62
2023/08/02 05:12:58;;;;;;;10.13;3.72;;;;;;;16.83;100.00;99483.34;5116212;28;20476;-61
2023/08/02 05:15:26;;;;;;;9.88;3.88;;;;;;;16.85;100.00;99481.06;5099417;28;20051;-64
2023/08/02 05:17:54;;;;;;;9.27;3.58;;;;;;;16.87;100.00;99470.50;5116879;28;20082;-64
2023/08/02 05:20:22;;;;;;;7.97;3.63;;;;;;;16.88;100.00;99474.84;5097851;28;20043;-63
2023/08/02 05:22:50;;;;;;;9.10;4.10;;;;;;;16.89;100.00;99481.19;5080079;28;20040;-64
2023/08/02 05:25:18;;;;;;;9.65;4.13;;;;;;;16.85;100.00;99472.00;5114713;28;20047;-64
2023/08/02 05:27:45;;;;;;;7.70;4.05;;;;;;;16.82;100.00;99455.03;5098625;28;20047;-62
2023/08/02 05:30:13;;;;;;;8.00;4.07;;;;;;;16.83;100.00;99444.81;5097237;28;20047;-63
2023/08/02 05:32:41;;;;;;;9.77;3.72;;;;;;;16.82;100.00;99448.72;5116352;28;20047;-62
2023/08/02 05:35:08;;;;;;;8.98;4.65;;;;;;;16.83;100.00;99453.06;5081143;28;20047;-63
2023/08/02 05:37:36;;;;;;;9.35;3.90;;;;;;;16.82;100.00;99437.72;5081816;28;20055;-64
2023/08/02 05:40:04;;;;;;;8.63;3.92;;;;;;;16.80;100.00;99435.31;5114795;28;20056;-64
2023/08/02 05:42:32;;;;;;;9.75;4.50;;;;;;;16.79;100.00;99427.44;5096221;28;20496;-64
2023/08/02 05:45:00;;;;;;;7.53;3.85;;;;;;;16.76;100.00;99417.06;5095989;28;20062;-63
2023/08/02 05:47:29;;;;;;;9.60;4.20;;;;;;;16.75;100.00;99409.97;5095275;28;20441;-63
2023/08/02 05:49:57;;;;;;;9.32;4.22;;;;;;;16.75;100.00;99397.00;5091294;28;20043;-65
2023/08/02 05:52:26;;;;;;;11.38;4.75;;;;;;;16.75;100.00;99391.50;5116715;28;20055;-63
2023/08/02 05:54:55;;;;;;;7.20;3.50;;;;;;;16.76;100.00;99381.31;5067429;28;20067;-64
2023/08/02 05:57:23;;;;;;;7.20;3.65;;;;;;;16.77;100.00;99385.66;5107150;28;20492;-63
2023/08/02 05:59:51;;;;;;;9.00;4.03;;;;;;;16.78;100.00;99373.50;5074661;28;20052;-65
2023/08/02 06:02:19;;;;;;;7.82;3.90;;;;;;;16.77;100.00;99380.97;5105620;28;20043;-65
2023/08/02 06:04:46;;;;;;;7.25;3.80;;;;;;;16.78;100.00;99368.00;5115980;28;20055;-64
2023/08/02 06:07:14;;;;;;;8.30;4.15;;;;;;;16.79;100.00;99366.91;5115732;28;20074;-64
2023/08/02 06:09:42;;;;;;;8.55;3.83;;;;;;;16.79;100.00;99359.44;5115470;28;20051;-64
2023/08/02 06:12:10;;;;;;;7.57;3.58;;;;;;;16.74;100.00;99343.16;5113774;28;20175;-64
2023/08/02 06:14:37;;;;;;;8.13;3.80;;;;;;;16.71;100.00;99338.31;5115417;28;20411;-64
2023/08/02 06:17:05;;;;;;;9.32;3.65;;;;;;;16.71;100.00;99330.06;5099677;28;20107;-63
2023/08/02 06:19:33;;;;;;;8.20;4.07;;;;;;;16.72;100.00;99312.44;4758320;28;9999864;-67
2023/08/02 06:22:00;;;;;;;6.45;3.40;;;;;;;16.74;100.00;99306.56;5110907;28;20048;-65
2023/08/02 06:24:28;;;;;;;6.97;3.80;;;;;;;16.75;100.00;99310.94;5094263;28;20044;-65
2023/08/02 06:26:56;;;;;;;8.30;3.33;;;;;;;16.77;100.00;99294.91;5111419;28;20051;-65
2023/08/02 06:29:24;;;;;;;7.20;3.67;;;;;;;16.77;100.00;99295.69;5104360;28;20131;-64
2023/08/02 06:31:52;;;;;;;7.22;3.55;;;;;;;16.79;100.00;99287.13;5110422;28;20046;-66
2023/08/02 06:34:19;;;;;;;6.47;3.42;;;;;;;16.76;100.00;99280.34;5093739;28;20050;-66
2023/08/02 06:36:47;;;;;;;6.07;3.20;;;;;;;16.77;100.00;99273.69;5093771;28;20047;-64
2023/08/02 06:39:15;;;;;;;6.90;3.25;;;;;;;16.77;100.00;99272.91;5111744;28;20056;-63
2023/08/02 06:41:43;;;;;;;6.45;3.70;;;;;;;16.77;100.00;99257.19;5092057;28;20043;-64
2023/08/02 06:44:13;;;;;;;5.10;3.00;;;;;;;16.77;100.00;99253.66;5092790;28;20058;-66
2023/08/02 06:46:41;;;;;;;6.47;3.10;;;;;;;16.75;100.00;99248.47;5110130;28;20051;-66
2023/08/02 06:49:09;;;;;;;4.90;3.10;;;;;;;16.75;100.00;99242.97;5110244;28;20062;-66
2023/08/02 06:51:37;;;;;;;4.25;2.75;;;;;;;16.77;100.00;99234.38;5076387;28;20059;-65
2023/08/02 06:54:04;;;;;;;16.70;4.32;;;;;;;16.81;100.00;99224.28;5093318;28;20058;-65
2023/08/02 06:56:32;;;;;;;6.35;2.92;;;;;;;16.83;100.00;99213.75;5112982;28;20058;-63
2023/08/02 06:59:00;;;;;;;5.97;3.22;;;;;;;16.82;100.00;99212.16;5113669;28;20051;-66
2023/08/02 07:01:28;;;;;;;5.32;2.58;;;;;;;16.81;100.00;99194.88;5080048;28;20047;-63
2023/08/02 07:03:55;;;;;;;6.05;2.90;;;;;;;16.80;100.00;99187.75;5115011;28;20050;-63
2023/08/02 07:06:23;;;;;;;4.15;2.72;;;;;;;16.81;100.00;99188.53;5114768;28;20051;-64
2023/08/02 07:08:51;;;;;;;6.05;2.90;;;;;;;16.79;100.00;99175.16;5096307;28;20055;-62
2023/08/02 07:11:19;;;;;;;4.75;2.47;;;;;;;16.78;100.00;99161.72;5114862;28;20051;-64
2023/08/02 07:14:03;;;;;;;6.47;2.50;;;;;;;16.79;100.00;99157.84;5079453;28;20056;-62
2023/08/02 07:16:31;;;;;;;2.83;2.30;;;;;;;16.79;100.00;99146.84;5079796;28;20039;-62
2023/08/02 07:19:02;;;;;;;4.72;2.47;;;;;;;16.79;100.00;99142.16;5114881;28;20046;-62
2023/08/02 07:21:30;;;;;;;4.15;2.45;;;;;;;16.80;100.00;99143.72;5096504;28;20047;-64
2023/08/02 07:23:58;;;;;;;3.25;2.25;;;;;;;16.79;100.00;99136.66;5105732;28;20044;-63
2023/08/02 07:26:26;;;;;;;3.95;2.20;;;;;;;16.79;100.00;99141.34;5107364;28;20050;-62
2023/08/02 07:28:54;;;;;;;8.93;3.13;;;;;;;16.80;100.00;99126.44;5113982;28;20054;-63
2023/08/02 07:31:21;;;;;;;4.60;2.60;;;;;;;16.81;100.00;99134.34;5114034;28;20049;-64
2023/08/02 07:33:49;;;;;;;3.50;2.40;;;;;;;16.81;100.00;99131.59;5095896;28;20040;-65
2023/08/02 07:36:19;;;;;;;3.92;2.50;;;;;;;16.77;100.00;99132.63;5112790;28;20048;-65
2023/08/02 07:38:47;;;;;;;11.88;2.80;;;;;;;16.75;100.00;99126.66;5114347;28;20047;-63
2023/08/02 07:41:15;;;;;;;3.30;2.30;;;;;;;16.75;100.00;99129.41;5096135;28;20044;-66
2023/08/02 07:43:43;;;;;;;3.92;2.60;;;;;;;16.70;100.00;99127.72;5113753;28;20043;-62
2023/08/02 07:46:21;;;;;;;3.10;2.60;;;;;;;16.69;100.00;99111.56;5079459;28;20050;-63
2023/08/02 07:48:52;;;;;;;2.92;2.05;;;;;;;16.65;100.00;99100.47;5112948;28;20063;-62
2023/08/02 07:51:20;;;;;;;3.95;2.60;;;;;;;16.66;100.00;99098.50;5109902;28;20446;-65
2023/08/02 07:53:49;;;;;;;3.22;2.38;;;;;;;16.70;100.00;99099.41;5093663;28;20169;-63
2023/08/02 07:56:17;;;;;;;3.53;2.45;;;;;;;16.69;100.00;99086.81;5059795;28;20048;-67
2023/08/02 07:58:45;;;;;;;2.83;2.35;;;;;;;16.70;100.00;99085.66;5094024;28;20389;-67
2023/08/02 08:01:13;;;;;;;3.53;2.50;;;;;;;16.71;100.00;99070.75;5089270;28;20052;-65
2023/08/02 08:03:40;;;;;;;3.67;2.47;;;;;;;16.71;100.00;99070.75;5114663;28;20447;-62
2023/08/02 08:06:10;;;;;;;4.07;2.60;;;;;;;16.72;100.00;99070.41;5095731;28;20043;-64
2023/08/02 08:08:38;;;;;;;3.10;2.30;;;;;;;16.74;100.00;99062.63;5114207;28;20044;-64
2023/08/02 08:11:06;;;;;;;2.45;2.20;;;;;;;16.75;100.00;99052.41;5096132;28;20047;-62
2023/08/02 08:13:34;;;;;;;3.53;2.08;;;;;;;16.75;100.00;99052.41;4754997;28;10000316;-64
2023/08/02 08:16:02;;;;;;;3.35;2.30;;;;;;;16.75;100.00;99049.66;5092529;28;20055;-64
2023/08/02 08:18:31;;;;;;;4.25;2.22;;;;;;;16.73;100.00;99049.22;5071472;28;20052;-65
2023/08/02 08:21:01;;;;;;;3.33;2.20;;;;;;;16.73;100.00;99047.25;5088775;28;20051;-67
2023/08/02 08:23:29;;;;;;;2.40;2.00;;;;;;;16.76;100.00;99043.81;5109924;28;20500;-64
2023/08/02 08:25:57;;;;;;;4.20;2.22;;;;;;;16.85;100.00;99040.13;5092993;28;20047;-61
2023/08/02 08:28:25;;;;;;;3.17;2.10;;;;;;;16.88;100.00;99045.69;5096252;28;20052;-64
2023/08/02 08:31:03;;;;;;;4.22;2.30;;;;;;;16.87;100.00;99033.09;5096552;28;20051;-63
2023/08/02 08:33:32;;;;;;;2.30;1.90;;;;;;;16.84;100.00;99017.31;5078404;28;20057;-64
2023/08/02 08:35:59;;;;;;;3.17;2.35;;;;;;;16.85;100.00;99029.91;5078209;28;20059;-63
2023/08/02 08:38:27;;;;;;;3.03;2.00;;;;;;;16.83;100.00;99029.44;5096189;28;20055;-63
2023/08/02 08:40:56;;;;;;;3.22;2.10;;;;;;;16.81;100.00;99027.06;5096545;28;20070;-65
2023/08/02 08:43:28;;;;;;;4.82;2.45;;;;;;;16.82;100.00;99020.41;5045308;28;20515;-65
2023/08/02 08:45:59;;;;;;;3.60;2.00;;;;;;;16.87;100.00;99024.84;5060725;28;20105;-65
2023/08/02 08:48:28;;;;;;;3.60;2.10;;;;;;;16.92;100.00;99021.84;5095768;28;20495;-65
2023/08/02 08:50:56;;;;;;;3.20;1.85;;;;;;;16.94;100.00;99021.50;5108305;28;20101;-65
2023/08/02 08:53:32;;;;;;;5.57;2.15;;;;;;;17.03;100.00;99024.88;5083190;28;20530;-64
2023/08/02 08:56:01;;;;;;;;;;;;;;;17.10;100.00;99018.72;5112088;28;20139;-61
2023/08/02 08:58:29;;;;;;;3.08;1.85;;;;;;;17.13;100.00;99018.03;5095333;28;19920;-58
2023/08/02 09:00:58;;;;;;;2.05;1.73;;;;;;;17.14;100.00;99003.09;5089957;28;20543;-63
2023/08/02 09:03:26;;;;;;;1.45;1.35;;;;;;;17.17;100.00;99008.69;5099508;28;20137;-65
2023/08/02 09:05:56;;;;;;;3.53;1.88;;;;;;;17.19;100.00;99011.06;5083363;28;20063;-67
2023/08/02 09:08:24;;;;;;;2.08;1.85;;;;;;;17.23;100.00;99007.25;5115253;28;20054;-62
2023/08/02 09:10:52;;;;;;;4.13;2.13;;;;;;;17.31;100.00;99002.72;5112890;28;20056;-65
2023/08/02 09:13:21;;;;;;;4.38;2.20;;;;;;;17.38;100.00;98997.38;5117898;28;20048;-66
2023/08/02 09:16:17;;;;;;;6.15;3.60;;;;;;;17.45;100.00;98996.75;5099161;28;20054;-65
2023/08/02 09:18:46;;;;;;;14.15;8.10;;;;;;;17.53;100.00;98997.69;5097737;28;20055;-63
2023/08/02 09:21:18;;;;;;;7.57;4.25;;;;;;;17.60;100.00;98993.13;5065440;28;20104;-63
2023/08/02 09:23:55;;;;;;;9.25;5.18;;;;;;;17.60;100.00;98986.84;5096917;28;20040;-63
2023/08/02 09:26:23;;;;;;;15.25;7.97;;;;;;;17.64;100.00;98983.00;5098656;28;20048;-63
2023/08/02 09:29:07;;;;;;;7.80;4.20;;;;;;;17.79;100.00;98978.59;5107951;28;20044;-63
2023/08/02 09:31:36;;;;;;;9.73;4.40;;;;;;;17.77;100.00;98969.09;5097408;28;20105;-63
2023/08/02 09:34:04;;;;;;;7.43;3.75;;;;;;;17.78;100.00;98968.75;5083097;28;20399;-64
2023/08/02 09:36:34;;;;;;;7.47;4.43;;;;;;;17.79;100.00;98959.31;5074363;28;20039;-64
2023/08/02 09:39:16;;;;;;;3.90;2.67;;;;;;;17.83;100.00;98953.91;5092639;28;20495;-63
2023/08/02 09:41:44;;;;;;;3.42;2.42;;;;;;;17.85;100.00;98955.16;5109887;28;20043;-64
2023/08/02 09:44:21;;;;;;;4.95;2.60;;;;;;;17.88;100.00;98948.91;5095649;28;20562;-63
2023/08/02 09:46:49;;;;;;;3.22;1.83;;;;;;;17.90;100.00;98950.50;5077870;28;20081;-64
2023/08/02 09:49:19;;;;;;;4.90;2.30;;;;;;;17.91;100.00;98944.63;5087290;28;20067;-65
2023/08/02 09:51:47;;;;;;;5.15;2.78;;;;;;;17.90;100.00;98945.00;5081041;28;20051;-64
2023/08/02 09:54:15;;;;;;;4.80;2.53;;;;;;;17.90;100.00;98945.00;5099493;28;20055;-64
2023/08/02 09:56:44;;;;;;;4.88;2.78;;;;;;;17.90;100.00;98940.28;5097210;28;20047;-64
2023/08/02 09:59:13;;;;;;;3.30;2.20;;;;;;;17.98;100.00;98930.19;5114006;28;20059;-64
2023/08/02 10:01:41;;;;;;;3.15;2.00;;;;;;;18.01;100.00;98929.47;5078550;28;20052;-65
2023/08/02 10:04:10;;;;;;;3.80;2.33;;;;;;;18.03;100.00;98924.38;5096973;28;20043;-65
2023/08/02 10:06:49;;;;;;;2.58;1.83;;;;;;;18.01;100.00;98921.19;5091132;28;20039;-65
2023/08/02 10:09:24;;;;;;;5.63;1.92;;;;;;;18.05;100.00;98919.31;5113607;28;20410;-65
2023/08/02 10:12:05;;;;;;;3.08;1.88;;;;;;;18.10;100.00;98928.06;5064366;28;20369;-63
2023/08/02 10:14:33;;;;;;;4.00;1.80;;;;;;;18.13;100.00;98923.00;5095192;28;20105;-62
2023/08/02 10:17:01;;;;;;;2.95;2.03;;;;;;;18.18;100.00;98928.19;5112330;28;20039;-64
2023/08/02 10:19:30;;;;;;;3.92;1.80;;;;;;;18.24;100.00;98913.75;5072814;28;20046;-62
2023/08/02 10:22:03;;;;;;;2.35;2.00;;;;;;;18.33;100.00;98921.81;5097890;28;20055;-64
2023/08/02 10:24:31;;;;;;;4.63;2.35;;;;;;;18.41;100.00;98919.97;5112833;28;20563;-65
2023/08/02 10:27:03;;;;;;;2.90;2.03;;;;;;;18.48;100.00;98909.84;5079442;28;20058;-65
2023/08/02 10:29:33;;;;;;;3.53;2.08;;;;;;;18.57;100.00;98895.81;5094116;28;20047;-63
2023/08/02 10:32:12;;;;;;;2.75;2.42;;;;;;;18.66;100.00;98881.75;5071411;28;20377;-64
2023/08/02 10:34:52;;;;;;;2.44;2.01;;;;;;;18.73;100.00;98866.09;4636135;28;10002831;-65
2023/08/02 10:37:21;;;;;;;4.63;2.28;;;;;;;18.92;100.00;98864.44;5089039;28;20044;-65
2023/08/02 10:39:48;;;;;;;3.00;2.33;;;;;;;18.95;100.00;98858.19;5059563;28;20062;-65
2023/08/02 10:42:22;;;;;;;3.60;2.35;;;;;;;19.06;100.00;98850.84;5111406;28;20047;-65
2023/08/02 10:44:55;;;;;;;3.15;1.95;;;;;;;18.98;100.00;98860.22;5076930;28;20032;-66
2023/08/02 10:47:34;;;;;;;2.13;1.90;;;;;;;19.02;100.00;98858.28;5109288;28;20039;-67
2023/08/02 10:50:03;;;;;;;2.92;2.42;;;;;;;18.96;100.00;98862.53;5111664;28;20487;-63
2023/08/02 10:52:35;;;;;;;2.22;1.73;;;;;;;18.90;100.00;98851.00;5103689;28;20050;-64
2023/08/02 10:55:10;;;;;;;2.70;1.52;;;;;;;18.83;100.00;98852.88;5091745;28;20060;-65
2023/08/02 10:57:40;;;;;;;2.38;1.70;;;;;;;18.83;100.00;98847.34;5100685;28;20044;-65
2023/08/02 11:00:16;;;;;;;2.58;1.83;;;;;;;18.83;100.00;98841.84;5095881;28;20048;-65
2023/08/02 11:02:46;;;;;;;2.30;1.83;;;;;;;18.79;100.00;98844.56;5118576;28;20043;-62
2023/08/02 11:05:16;;;;;;;1.85;1.60;;;;;;;18.76;100.00;98847.22;5091963;28;20171;-64
2023/08/02 11:07:59;;;;;;;3.03;1.95;;;;;;;18.70;100.00;98838.47;5097188;28;20040;-65
2023/08/02 11:10:26;;;;;;;5.43;2.05;;;;;;;18.70;100.00;98817.19;5115224;28;20416;-63
2023/08/02 11:12:55;;;;;;;1.75;1.40;;;;;;;18.71;100.00;98810.53;5115154;28;20043;-64
2023/08/02 11:15:23;;;;;;;3.88;1.88;;;;;;;18.73;100.00;98810.94;5096722;28;20051;-64
2023/08/02 11:17:57;;;;;;;2.53;1.58;;;;;;;18.74;100.00;98804.25;5095628;28;20407;-64
2023/08/02 11:20:27;;;;;;;2.95;1.77;;;;;;;18.75;100.00;98821.59;5080116;28;20445;-63
2023/08/02 11:22:55;;;;;;;1.65;1.55;;;;;;;18.73;100.00;98815.66;5095994;28;20063;-61
2023/08/02 11:25:23;;;;;;;1.60;1.45;;;;;;;18.71;100.00;98829.84;5114223;28;20140;-63
2023/08/02 11:28:04;;;;;;;1.73;1.52;;;;;;;18.71;100.00;98821.56;5076371;28;20044;-63
2023/08/02 11:30:33;;;;;;;4.10;1.60;;;;;;;18.68;100.00;98829.78;5093856;28;20454;-65
2023/08/02 11:33:01;;;;;;;2.35;2.10;;;;;;;18.67;100.00;98833.72;5094062;28;20048;-65